createdAt,value
2018-03-02T00:00:25.691Z,26.75
2018-03-02T00:02:52.295Z,25.20
2018-03-02T00:05:18.969Z,26.98
2018-03-02T00:07:45.574Z,34.92
2018-03-02T00:10:12.178Z,34.17
2018-03-02T00:12:38.760Z,37.63
2018-03-02T00:15:05.334Z,34.80
2018-03-02T00:17:32.671Z,36.13
2018-03-02T00:19:59.252Z,38.70
2018-03-02T00:22:26.555Z,41.17
2018-03-02T00:24:53.153Z,36.85
2018-03-02T00:27:19.766Z,32.92
2018-03-02T00:29:47.113Z,32.47
2018-03-02T00:32:13.748Z,28.27
2018-03-02T00:34:41.091Z,27.23
2018-03-02T00:37:08.395Z,27.10
2018-03-02T00:39:34.962Z,29.58
2018-03-02T00:42:01.506Z,32.35
2018-03-02T00:44:28.084Z,31.98
2018-03-02T00:46:55.367Z,28.95
2018-03-02T00:49:21.921Z,33.05
2018-03-02T00:51:48.467Z,29.63
2018-03-02T00:54:15.125Z,31.50
2018-03-02T00:56:41.770Z,34.17
2018-03-02T00:59:08.884Z,36.15
2018-03-02T01:01:35.421Z,36.85
2018-03-02T01:04:02.778Z,36.45
2018-03-02T01:06:29.434Z,34.58
2018-03-02T01:08:56.789Z,35.50
2018-03-02T01:11:24.126Z,38.13
2018-03-02T01:13:50.755Z,33.88
2018-03-02T01:16:17.317Z,35.95
2018-03-02T01:18:44.753Z,37.58
2018-03-02T01:21:12.074Z,35.35
2018-03-02T01:23:38.928Z,34.20
2018-03-02T01:26:05.509Z,36.83
2018-03-02T01:28:32.822Z,35.97
2018-03-02T01:30:59.396Z,38.33
2018-03-02T01:33:25.998Z,30.85
2018-03-02T01:35:52.603Z,35.55
2018-03-02T01:38:19.894Z,33.33
2018-03-02T01:40:46.479Z,37.35
2018-03-02T01:43:13.126Z,38.08
2018-03-02T01:45:40.455Z,37.10
2018-03-02T01:48:07.040Z,39.95
2018-03-02T01:50:33.660Z,38.83
2018-03-02T01:53:00.267Z,37.45
2018-03-02T01:55:27.595Z,37.22
2018-03-02T01:57:54.192Z,34.95
2018-03-02T02:00:20.778Z,34.85
2018-03-02T02:02:48.120Z,35.90
2018-03-02T02:05:14.729Z,33.28
2018-03-02T02:07:41.327Z,39.15
2018-03-02T02:10:07.948Z,36.85
2018-03-02T02:12:34.550Z,37.55
2018-03-02T02:15:01.138Z,35.53
2018-03-02T02:17:28.667Z,29.63
2018-03-02T02:19:55.202Z,34.78
2018-03-02T02:22:22.481Z,37.42
2018-03-02T02:24:49.811Z,29.98
2018-03-02T02:27:16.383Z,29.20
2018-03-02T02:29:43.682Z,27.85
2018-03-02T02:32:10.236Z,26.87
2018-03-02T02:34:36.846Z,29.30
2018-03-02T02:37:03.490Z,26.75
2018-03-02T02:39:30.048Z,27.10
2018-03-02T02:41:56.964Z,27.05
2018-03-02T02:44:23.523Z,28.00
2018-03-02T02:46:50.073Z,27.30
2018-03-02T02:49:16.655Z,28.05
2018-03-02T02:51:43.205Z,26.83
2018-03-02T02:54:09.834Z,31.30
2018-03-02T02:56:36.378Z,27.62
2018-03-02T02:59:02.946Z,29.15
2018-03-02T03:01:29.552Z,29.73
2018-03-02T03:03:56.137Z,27.05
2018-03-02T03:06:22.939Z,31.95
2018-03-02T03:08:49.554Z,28.70
2018-03-02T03:11:16.136Z,32.92
2018-03-02T03:13:42.732Z,30.67
2018-03-02T03:16:09.337Z,30.60
2018-03-02T03:18:36.675Z,28.95
2018-03-02T03:21:03.230Z,30.90
2018-03-02T03:23:30.549Z,28.55
2018-03-02T03:25:57.102Z,28.90
2018-03-02T03:28:23.673Z,29.60
2018-03-02T03:30:50.947Z,28.50
2018-03-02T03:33:17.538Z,31.00
2018-03-02T03:35:44.857Z,31.85
2018-03-02T03:38:11.434Z,32.60
2018-03-02T03:40:38.090Z,29.55
2018-03-02T03:43:04.645Z,33.92
2018-03-02T03:45:32.023Z,32.80
2018-03-02T03:47:58.602Z,32.42
2018-03-02T03:50:25.258Z,32.90
2018-03-02T03:52:51.822Z,35.38
2018-03-02T03:55:18.398Z,33.40
2018-03-02T03:57:45.037Z,31.20
2018-03-02T04:00:11.667Z,32.47
2018-03-02T04:02:39.019Z,36.28
2018-03-02T04:05:05.612Z,33.10
2018-03-02T04:07:32.193Z,33.17
2018-03-02T04:09:58.726Z,32.58
2018-03-02T04:12:25.747Z,32.80
2018-03-02T04:14:52.302Z,32.72
2018-03-02T04:17:19.614Z,33.10
2018-03-02T04:19:46.182Z,37.00
2018-03-02T04:22:12.739Z,39.95
2018-03-02T04:24:39.285Z,34.45
2018-03-02T04:27:06.570Z,33.67
2018-03-02T04:29:33.159Z,36.88
2018-03-02T04:31:59.722Z,41.58
2018-03-02T04:34:27.039Z,37.50
2018-03-02T04:36:53.584Z,36.35
2018-03-02T04:39:20.183Z,35.85
2018-03-02T04:41:46.734Z,38.20
2018-03-02T04:44:13.324Z,36.90
2018-03-02T04:46:39.858Z,36.83
2018-03-02T04:49:07.446Z,37.08
2018-03-02T04:51:34.034Z,39.72
2018-03-02T04:54:00.566Z,42.42
2018-03-02T04:56:27.881Z,38.75
2018-03-02T04:58:54.481Z,39.72
2018-03-02T05:01:21.806Z,40.65
2018-03-02T05:03:48.708Z,42.13
2018-03-02T05:06:15.270Z,41.90
2018-03-02T05:08:41.890Z,39.78
2018-03-02T05:11:08.845Z,38.47
2018-03-02T05:13:35.564Z,41.80
2018-03-02T05:16:02.143Z,39.58
2018-03-02T05:18:28.786Z,38.50
2018-03-02T05:20:55.350Z,41.92
2018-03-02T05:23:22.673Z,40.08
2018-03-02T05:25:50.030Z,51.00
2018-03-02T05:28:16.589Z,43.45
2018-03-02T05:30:43.875Z,41.03
2018-03-02T05:33:10.706Z,40.50
2018-03-02T05:35:37.274Z,40.30
2018-03-02T05:38:03.862Z,39.70
2018-03-02T05:40:31.162Z,41.08
2018-03-02T05:42:57.701Z,41.42
2018-03-02T05:45:24.614Z,39.85
2018-03-02T05:47:51.155Z,39.80
2018-03-02T05:50:17.717Z,40.42
2018-03-02T05:52:44.283Z,38.72
2018-03-02T05:55:10.882Z,41.47
2018-03-02T05:57:37.521Z,37.90
2018-03-02T06:00:04.194Z,38.08
2018-03-02T06:02:31.497Z,45.20
2018-03-02T06:04:58.054Z,39.42
2018-03-02T06:07:24.654Z,40.00
2018-03-02T06:09:51.283Z,41.78
2018-03-02T06:12:18.976Z,39.42
2018-03-02T06:14:45.517Z,42.10
2018-03-02T06:17:12.109Z,45.47
2018-03-02T06:19:38.707Z,42.65
2018-03-02T06:22:05.362Z,45.92
2018-03-02T06:24:31.970Z,44.60
2018-03-02T06:26:58.533Z,45.40
2018-03-02T06:29:25.904Z,48.13
2018-03-02T06:31:52.484Z,45.35
2018-03-02T06:34:19.819Z,45.53
2018-03-02T06:36:46.411Z,44.72
2018-03-02T06:39:13.001Z,44.03
2018-03-02T06:41:39.588Z,43.85
2018-03-02T06:44:06.918Z,43.00
2018-03-02T06:46:33.494Z,44.35
2018-03-02T06:49:00.063Z,46.10
2018-03-02T06:51:26.661Z,49.30
2018-03-02T06:53:53.245Z,46.33
2018-03-02T06:56:19.893Z,43.90
2018-03-02T06:58:46.815Z,47.08
2018-03-02T07:01:13.440Z,45.15
2018-03-02T07:03:40.035Z,44.45
2018-03-02T07:06:07.514Z,44.10
2018-03-02T07:08:34.880Z,41.63
2018-03-02T07:11:01.447Z,44.42
2018-03-02T07:13:28.298Z,46.00
2018-03-02T07:15:54.866Z,45.10
2018-03-02T07:18:21.506Z,44.92
2018-03-02T07:20:48.847Z,45.28
2018-03-02T07:23:15.395Z,46.60
2018-03-02T07:25:42.251Z,45.15
2018-03-02T07:28:09.750Z,46.25
2018-03-02T07:30:36.301Z,46.80
2018-03-02T07:33:02.864Z,44.47
2018-03-02T07:35:29.421Z,46.17
2018-03-02T07:37:56.051Z,44.88
2018-03-02T07:40:22.668Z,44.75
2018-03-02T07:42:49.207Z,44.15
2018-03-02T07:45:15.758Z,44.65
2018-03-02T07:47:42.379Z,47.80
2018-03-02T07:50:08.939Z,46.28
2018-03-02T07:52:36.251Z,46.03
2018-03-02T07:55:02.843Z,44.50
2018-03-02T07:57:30.165Z,46.97
2018-03-02T07:59:56.719Z,47.88
2018-03-02T08:02:24.066Z,44.13
2018-03-02T08:04:50.643Z,45.65
2018-03-02T08:07:17.274Z,45.92
2018-03-02T08:09:43.878Z,45.45
2018-03-02T08:12:10.435Z,44.05
2018-03-02T08:14:37.046Z,44.28
2018-03-02T08:17:04.383Z,43.45
2018-03-02T08:19:30.990Z,47.13
2018-03-02T08:21:57.683Z,44.38
2018-03-02T08:24:25.019Z,42.60
2018-03-02T08:26:51.843Z,39.40
2018-03-02T08:29:18.427Z,44.55
2018-03-02T08:31:45.004Z,44.65
2018-03-02T08:34:11.576Z,41.65
2018-03-02T08:36:38.128Z,40.88
2018-03-02T08:39:04.793Z,41.30
2018-03-02T08:41:32.195Z,42.00
2018-03-02T08:43:59.741Z,40.65
2018-03-02T08:46:26.312Z,45.10
2018-03-02T08:48:52.907Z,42.13
2018-03-02T08:51:19.496Z,39.88
2018-03-02T08:53:46.064Z,43.42
2018-03-02T08:56:12.608Z,42.33
2018-03-02T08:58:39.188Z,46.65
2018-03-02T09:01:06.507Z,41.67
2018-03-02T09:03:33.094Z,41.95
2018-03-02T09:06:00.183Z,44.97
2018-03-02T09:08:26.743Z,43.97
2018-03-02T09:10:54.068Z,43.97
2018-03-02T09:13:20.976Z,45.33
2018-03-02T09:15:47.999Z,44.10
2018-03-02T09:18:14.592Z,45.47
2018-03-02T09:20:41.166Z,44.33
2018-03-02T09:23:07.734Z,46.35
2018-03-02T09:25:34.330Z,43.72
2018-03-02T09:28:00.886Z,43.35
2018-03-02T09:30:27.779Z,44.03
2018-03-02T09:32:54.346Z,46.83
2018-03-02T09:35:20.946Z,46.60
2018-03-02T09:37:47.512Z,44.97
2018-03-02T09:40:15.137Z,44.60
2018-03-02T09:42:41.708Z,42.80
2018-03-02T09:45:08.309Z,43.55
2018-03-02T09:47:34.912Z,44.95
2018-03-02T09:50:02.546Z,44.42
2018-03-02T09:52:29.115Z,43.60
2018-03-02T09:54:56.426Z,42.78
2018-03-02T09:57:23.054Z,43.47
2018-03-02T09:59:49.684Z,44.33
2018-03-02T10:02:16.282Z,42.75
2018-03-02T10:04:43.603Z,45.63
2018-03-02T10:07:10.177Z,45.70
2018-03-02T10:09:37.487Z,46.88
2018-03-02T10:12:04.399Z,46.80
2018-03-02T10:14:30.966Z,45.72
2018-03-02T10:16:57.512Z,43.05
2018-03-02T10:19:24.107Z,43.17
2018-03-02T10:21:50.697Z,46.70
2018-03-02T10:24:17.329Z,43.53
2018-03-02T10:26:43.893Z,44.70
2018-03-02T10:29:10.867Z,47.08
2018-03-02T10:31:37.543Z,44.45
2018-03-02T10:34:04.807Z,44.95
2018-03-02T10:36:31.404Z,43.65
2018-03-02T10:38:57.937Z,46.55
2018-03-02T10:41:24.510Z,43.47
2018-03-02T10:43:51.101Z,44.80
2018-03-02T10:46:17.674Z,45.10
2018-03-02T10:48:44.231Z,43.08
2018-03-02T10:51:10.787Z,46.40
2018-03-02T10:53:37.402Z,43.95
2018-03-02T10:56:04.717Z,46.95
2018-03-02T10:58:31.546Z,42.42
2018-03-02T11:00:58.149Z,44.03
2018-03-02T11:03:24.758Z,47.50
2018-03-02T11:05:52.471Z,44.55
2018-03-02T11:08:19.798Z,45.63
2018-03-02T11:10:47.074Z,44.03
2018-03-02T11:13:13.640Z,44.30
2018-03-02T11:15:40.226Z,44.78
2018-03-02T11:18:07.576Z,44.58
2018-03-02T11:20:34.162Z,46.03
2018-03-02T11:23:01.903Z,45.55
2018-03-02T11:25:28.458Z,46.97
2018-03-02T11:27:55.081Z,47.33
2018-03-02T11:30:21.682Z,47.28
2018-03-02T11:32:48.538Z,45.08
2018-03-02T11:35:15.841Z,44.38
2018-03-02T11:37:43.178Z,43.97
2018-03-02T11:40:09.806Z,44.00
2018-03-02T11:42:36.394Z,43.87
2018-03-02T11:45:02.997Z,45.92
2018-03-02T11:47:29.689Z,46.28
2018-03-02T11:49:57.386Z,43.22
2018-03-02T11:52:23.942Z,43.60
2018-03-02T11:54:50.529Z,47.20
2018-03-02T11:57:17.850Z,44.05
2018-03-02T11:59:45.199Z,44.65
2018-03-02T12:02:12.127Z,41.80
2018-03-02T12:04:38.719Z,41.55
2018-03-02T12:07:06.060Z,42.25
2018-03-02T12:09:33.394Z,43.45
2018-03-02T12:12:00.737Z,47.13
2018-03-02T12:14:27.555Z,45.05
2018-03-02T12:16:54.133Z,44.40
2018-03-02T12:19:20.674Z,44.80
2018-03-02T12:21:47.294Z,59.00
2018-03-02T12:24:13.860Z,46.47
2018-03-02T12:26:40.967Z,46.30
2018-03-02T12:29:07.554Z,45.75
2018-03-02T12:31:34.167Z,45.72
2018-03-02T12:34:01.486Z,45.50
2018-03-02T12:36:28.038Z,53.60
2018-03-02T12:38:55.362Z,47.97
2018-03-02T12:41:22.318Z,48.45
2018-03-02T12:43:48.895Z,43.30
2018-03-02T12:46:15.544Z,43.85
2018-03-02T12:48:42.313Z,50.00
2018-03-02T12:51:08.919Z,46.45
2018-03-02T12:53:37.084Z,43.92
2018-03-02T12:56:04.393Z,42.90
2018-03-02T12:58:30.981Z,49.05
2018-03-02T13:00:57.656Z,45.10
2018-03-02T13:03:24.259Z,47.20
2018-03-02T13:05:50.900Z,44.13
2018-03-02T13:08:17.458Z,43.78
2018-03-02T13:10:44.053Z,44.88
2018-03-02T13:13:11.431Z,47.33
2018-03-02T13:15:38.038Z,45.17
2018-03-02T13:18:05.420Z,46.40
2018-03-02T13:20:32.032Z,47.08
2018-03-02T13:22:58.690Z,47.28
2018-03-02T13:25:25.327Z,46.20
2018-03-02T13:28:11.022Z,44.78
2018-03-02T13:30:37.546Z,49.08
2018-03-02T13:33:23.438Z,45.47
2018-03-02T13:35:50.023Z,46.95
2018-03-02T13:38:16.605Z,47.55
2018-03-02T13:41:02.335Z,47.13
2018-03-02T13:43:29.627Z,50.55
2018-03-02T13:45:56.337Z,51.50
2018-03-02T13:48:42.142Z,48.08
2018-03-02T13:51:08.689Z,47.83
2018-03-02T13:53:35.323Z,51.15
2018-03-02T13:56:02.695Z,50.65
2018-03-02T13:58:29.324Z,51.40
2018-03-02T14:00:55.945Z,47.13
2018-03-02T14:03:40.811Z,50.70
2018-03-02T14:06:07.386Z,45.70
2018-03-02T14:08:33.983Z,45.00
2018-03-02T14:11:00.604Z,45.40
2018-03-02T14:13:27.524Z,45.58
2018-03-02T14:15:54.107Z,46.90
2018-03-02T14:18:20.739Z,47.47
2018-03-02T14:20:48.104Z,49.55
2018-03-02T14:23:14.754Z,49.88
2018-03-02T14:25:41.389Z,47.45
2018-03-02T14:28:08.020Z,47.45
2018-03-02T14:30:35.376Z,48.40
2018-03-02T14:33:02.894Z,46.20
2018-03-02T14:35:29.446Z,48.63
2018-03-02T14:37:56.022Z,48.08
2018-03-02T14:40:23.368Z,51.60
2018-03-02T14:42:50.710Z,49.42
2018-03-02T14:45:18.060Z,46.92
2018-03-02T14:47:44.959Z,50.33
2018-03-02T14:50:11.536Z,49.25
2018-03-02T14:52:38.151Z,47.75
2018-03-02T14:55:05.091Z,47.45
2018-03-02T14:57:31.678Z,48.87
2018-03-02T14:59:58.971Z,49.38
2018-03-02T15:02:25.987Z,49.00
2018-03-02T15:04:52.519Z,46.47
2018-03-02T15:07:19.113Z,51.53
2018-03-02T15:09:45.691Z,49.53
2018-03-02T15:12:12.324Z,49.20
2018-03-02T15:14:38.983Z,51.47
2018-03-02T15:17:05.548Z,50.05
2018-03-02T15:19:32.115Z,53.25
2018-03-02T15:21:58.713Z,51.75
2018-03-02T15:24:25.355Z,51.10
2018-03-02T15:26:51.951Z,50.78
2018-03-02T15:29:18.830Z,52.83
2018-03-02T15:31:45.473Z,50.15
2018-03-02T15:34:12.050Z,53.60
2018-03-02T15:36:39.408Z,53.20
2018-03-02T15:39:06.769Z,54.65
2018-03-02T15:41:34.099Z,52.25
2018-03-02T15:44:00.776Z,59.00
2018-03-02T15:46:27.334Z,60.72
2018-03-02T15:48:53.903Z,60.10
2018-03-02T15:51:21.340Z,55.78
2018-03-02T15:53:47.921Z,53.92
2018-03-02T15:56:14.556Z,56.25
2018-03-02T15:58:41.118Z,57.22
2018-03-02T16:01:07.689Z,55.70
2018-03-02T16:03:34.430Z,56.92
2018-03-02T16:06:01.055Z,56.40
2018-03-02T16:08:27.767Z,55.08
2018-03-02T16:10:54.369Z,53.00
2018-03-02T16:13:21.024Z,56.42
2018-03-02T16:15:48.372Z,59.60
2018-03-02T16:18:15.139Z,55.03
2018-03-02T16:20:41.927Z,63.30
2018-03-02T16:23:08.485Z,79.47
2018-03-02T16:25:35.110Z,80.38
2018-03-02T16:28:01.807Z,65.75
2018-03-02T16:30:28.489Z,83.15
2018-03-02T16:32:55.314Z,51.45
2018-03-02T16:35:21.899Z,55.72
2018-03-02T16:37:48.553Z,54.70
2018-03-02T16:40:15.153Z,54.05
2018-03-02T16:42:41.766Z,51.58
2018-03-02T16:45:08.375Z,51.20
2018-03-02T16:47:34.968Z,52.92
2018-03-02T16:50:01.652Z,53.20
2018-03-02T16:52:28.298Z,50.63
2018-03-02T16:54:54.927Z,53.05
2018-03-02T16:57:21.606Z,47.95
2018-03-02T16:59:48.195Z,51.30
2018-03-02T17:02:14.909Z,51.35
2018-03-02T17:04:41.759Z,54.83
2018-03-02T17:07:08.327Z,53.38
2018-03-02T17:09:34.908Z,53.72
2018-03-02T17:12:01.806Z,51.08
2018-03-02T17:14:28.401Z,48.97
2018-03-02T17:16:55.729Z,49.83
2018-03-02T17:19:22.672Z,53.55
2018-03-02T17:21:49.233Z,53.30
2018-03-02T17:24:16.544Z,48.78
2018-03-02T17:26:43.186Z,50.30
2018-03-02T17:29:09.746Z,50.58
2018-03-02T17:31:36.374Z,54.13
2018-03-02T17:34:03.746Z,47.58
2018-03-02T17:36:30.386Z,47.40
2018-03-02T17:38:57.005Z,45.40
2018-03-02T17:41:23.587Z,46.53
2018-03-02T17:43:50.151Z,44.13
2018-03-02T17:46:17.506Z,43.08
2018-03-02T17:48:44.929Z,44.10
2018-03-02T17:51:11.565Z,44.55
2018-03-02T17:53:38.151Z,39.28
2018-03-02T17:56:07.576Z,36.75
2018-03-02T17:58:34.964Z,35.47
2018-03-02T18:01:01.659Z,38.08
2018-03-02T18:03:28.241Z,38.92
2018-03-02T18:05:54.868Z,35.75
2018-03-02T18:08:21.626Z,30.88
2018-03-02T18:10:48.257Z,32.40
2018-03-02T18:13:14.934Z,29.92
2018-03-02T18:15:41.483Z,29.42
2018-03-02T18:18:08.089Z,29.67
2018-03-02T18:20:34.712Z,28.45
2018-03-02T18:23:01.300Z,29.33
2018-03-02T18:25:28.642Z,26.12
2018-03-02T18:27:56.018Z,27.80
2018-03-02T18:30:22.588Z,25.25
2018-03-02T18:32:49.189Z,25.75
2018-03-02T18:35:16.502Z,27.40
2018-03-02T18:37:43.063Z,26.77
2018-03-02T18:40:09.727Z,25.90
2018-03-02T18:42:37.074Z,28.70
2018-03-02T18:45:04.427Z,42.83
2018-03-02T18:47:31.114Z,31.58
2018-03-02T18:49:57.696Z,57.00
2018-03-02T18:52:24.558Z,34.50
2018-03-02T18:54:51.158Z,29.35
2018-03-02T18:57:17.829Z,30.15
2018-03-02T18:59:45.375Z,29.85
2018-03-02T19:02:12.680Z,22.13
2018-03-02T19:04:39.280Z,26.77
2018-03-02T19:07:05.963Z,21.50
2018-03-02T19:09:32.584Z,19.55
2018-03-02T19:11:59.179Z,19.58
2018-03-02T19:14:26.501Z,20.50
2018-03-02T19:16:53.071Z,19.62
2018-03-02T19:19:19.654Z,18.55
2018-03-02T19:21:46.475Z,20.45
2018-03-02T19:24:13.081Z,20.67
2018-03-02T19:26:39.726Z,19.55
2018-03-02T19:29:07.082Z,20.80
2018-03-02T19:31:33.675Z,20.10
2018-03-02T19:34:00.285Z,19.95
2018-03-02T19:36:27.060Z,21.58
2018-03-02T19:38:53.783Z,21.27
2018-03-02T19:41:20.377Z,18.52
2018-03-02T19:43:47.746Z,20.08
2018-03-02T19:46:14.356Z,16.37
2018-03-02T19:48:41.768Z,21.48
2018-03-02T19:51:08.738Z,17.20
2018-03-02T19:53:35.321Z,20.27
2018-03-02T19:56:01.891Z,19.80
2018-03-02T19:58:28.517Z,18.98
2018-03-02T20:00:55.174Z,14.87
2018-03-02T20:03:22.502Z,14.77
2018-03-02T20:05:49.085Z,13.68
2018-03-02T20:08:16.010Z,15.57
2018-03-02T20:10:42.595Z,15.73
2018-03-02T20:13:09.195Z,16.48
2018-03-02T20:15:36.630Z,14.50
2018-03-02T20:18:03.214Z,14.55
2018-03-02T20:20:30.515Z,14.15
2018-03-02T20:22:57.120Z,13.10
2018-03-02T20:25:23.859Z,11.63
2018-03-02T20:27:50.465Z,11.38
2018-03-02T20:30:17.841Z,9.40
2018-03-02T20:32:44.508Z,8.68
2018-03-02T20:35:11.086Z,10.32
2018-03-02T20:37:37.675Z,10.20
2018-03-02T20:40:04.313Z,9.30
2018-03-02T20:42:30.938Z,9.43
2018-03-02T20:44:57.591Z,10.40
2018-03-02T20:47:24.274Z,10.18
2018-03-02T20:49:50.880Z,11.93
2018-03-02T20:52:17.501Z,13.43
2018-03-02T20:54:44.119Z,13.02
2018-03-02T20:57:11.468Z,13.23
2018-03-02T20:59:38.810Z,13.23
2018-03-02T21:02:05.550Z,12.00
2018-03-02T21:04:32.876Z,11.55
2018-03-02T21:06:59.485Z,11.25
2018-03-02T21:09:26.067Z,13.05
2018-03-02T21:11:52.980Z,12.05
2018-03-02T21:14:19.548Z,12.68
2018-03-02T21:16:46.956Z,11.18
2018-03-02T21:19:13.567Z,11.55
2018-03-02T21:21:40.942Z,11.75
2018-03-02T21:24:07.550Z,15.25
2018-03-02T21:26:34.894Z,12.85
2018-03-02T21:29:01.482Z,12.40
2018-03-02T21:31:28.091Z,12.60
2018-03-02T21:33:54.720Z,13.40
2018-03-02T21:36:22.060Z,12.20
2018-03-02T21:38:49.405Z,12.75
2018-03-02T21:41:15.981Z,12.63
2018-03-02T21:43:42.641Z,10.77
2018-03-02T21:46:09.190Z,10.45
2018-03-02T21:48:35.758Z,11.05
2018-03-02T21:51:03.198Z,11.05
2018-03-02T21:53:29.774Z,10.98
2018-03-02T21:55:56.393Z,10.45
2018-03-02T21:58:23.734Z,11.35
2018-03-02T22:00:50.642Z,11.40
2018-03-02T22:03:17.217Z,11.95
2018-03-02T22:05:43.803Z,12.00
2018-03-02T22:08:10.390Z,11.38
2018-03-02T22:10:36.965Z,10.60
2018-03-02T22:13:03.624Z,12.05
2018-03-02T22:15:30.202Z,13.23
2018-03-02T22:17:57.542Z,12.93
2018-03-02T22:20:24.122Z,14.43
2018-03-02T22:22:50.769Z,12.27
2018-03-02T22:25:17.375Z,12.85
2018-03-02T22:27:44.710Z,12.88
2018-03-02T22:30:11.555Z,13.98
2018-03-02T22:32:38.127Z,12.90
2018-03-02T22:35:05.454Z,12.90
2018-03-02T22:37:32.763Z,14.80
2018-03-02T22:39:59.335Z,17.20
2018-03-02T22:42:25.883Z,15.02
2018-03-02T22:44:52.476Z,17.65
2018-03-02T22:47:19.089Z,17.08
2018-03-02T22:49:45.663Z,17.08
2018-03-02T22:52:12.242Z,18.50
2018-03-02T22:54:39.538Z,18.42
2018-03-02T22:57:06.112Z,18.08
2018-03-02T22:59:32.659Z,18.92
2018-03-02T23:01:59.254Z,17.40
2018-03-02T23:04:25.850Z,15.30
2018-03-02T23:06:52.420Z,15.40
2018-03-02T23:09:19.007Z,15.85
2018-03-02T23:11:46.350Z,15.93
2018-03-02T23:14:13.250Z,17.10
2018-03-02T23:16:39.799Z,16.15
2018-03-02T23:19:06.355Z,18.00
2018-03-02T23:21:32.992Z,18.25
2018-03-02T23:24:00.359Z,20.98
2018-03-02T23:26:27.695Z,24.05
2018-03-02T23:28:54.311Z,21.33
2018-03-02T23:31:21.622Z,18.55
2018-03-02T23:33:48.974Z,18.35
2018-03-02T23:36:16.299Z,19.85
2018-03-02T23:38:43.639Z,19.12
2018-03-02T23:41:10.918Z,15.00
2018-03-02T23:43:38.214Z,14.90
2018-03-02T23:46:04.798Z,16.60
2018-03-02T23:48:31.358Z,15.73
2018-03-02T23:50:58.657Z,14.73
2018-03-02T23:53:25.234Z,13.27
2018-03-02T23:55:52.845Z,13.90
2018-03-02T23:58:19.421Z,16.75
